sensor_id;sensor_type;location;lat;lon;timestamp;pressure;altitude;pressure_sealevel;temperature;humidity
4858;BME280;58975;51.978;8.472;2024-02-26T00:00:20;98871.84;;;1.27;100.00
4858;BME280;58975;51.978;8.472;2024-02-26T00:05:17;98880.13;;;1.34;100.00
4858;BME280;58975;51.978;8.472;2024-02-26T00:10:13;98885.41;;;1.47;100.00
4858;BME280;58975;51.978;8.472;2024-02-26T00:15:10;98882.91;;;1.45;100.00
4858;BME280;58975;51.978;8.472;2024-02-26T00:20:07;98878.69;;;1.42;100.00
4858;BME280;58975;51.978;8.472;2024-02-26T00:25:07;98879.22;;;1.48;100.00
4858;BME280;58975;51.978;8.472;2024-02-26T00:30:04;98874.91;;;1.59;100.00
4858;BME280;58975;51.978;8.472;2024-02-26T00:35:00;98879.09;;;1.62;100.00
4858;BME280;58975;51.978;8.472;2024-02-26T00:39:57;98883.75;;;1.71;100.00
4858;BME280;58975;51.978;8.472;2024-02-26T00:44:53;98883.31;;;1.64;100.00
4858;BME280;58975;51.978;8.472;2024-02-26T00:49:50;98877.44;;;1.73;100.00
4858;BME280;58975;51.978;8.472;2024-02-26T00:54:47;98867.25;;;1.69;100.00
4858;BME280;58975;51.978;8.472;2024-02-26T00:59:43;98854.56;;;1.63;100.00
4858;BME280;58975;51.978;8.472;2024-02-26T01:04:40;98847.84;;;1.59;100.00
4858;BME280;58975;51.978;8.472;2024-02-26T01:09:36;98851.22;;;1.61;100.00
4858;BME280;58975;51.978;8.472;2024-02-26T01:14:32;98865.06;;;1.63;100.00
4858;BME280;58975;51.978;8.472;2024-02-26T01:19:29;98843.84;;;1.66;100.00
4858;BME280;58975;51.978;8.472;2024-02-26T01:24:25;98849.00;;;1.67;100.00
4858;BME280;58975;51.978;8.472;2024-02-26T01:29:21;98837.75;;;1.65;100.00
4858;BME280;58975;51.978;8.472;2024-02-26T01:34:18;98835.75;;;1.69;100.00
4858;BME280;58975;51.978;8.472;2024-02-26T01:39:15;98833.66;;;1.74;100.00
4858;BME280;58975;51.978;8.472;2024-02-26T01:44:12;98824.84;;;1.75;100.00
4858;BME280;58975;51.978;8.472;2024-02-26T01:49:11;98815.28;;;1.74;100.00
4858;BME280;58975;51.978;8.472;2024-02-26T01:54:09;98809.63;;;1.80;100.00
4858;BME280;58975;51.978;8.472;2024-02-26T01:59:06;98807.72;;;1.82;100.00
4858;BME280;58975;51.978;8.472;2024-02-26T02:04:04;98802.06;;;1.88;100.00
4858;BME280;58975;51.978;8.472;2024-02-26T02:09:00;98812.63;;;1.99;100.00
4858;BME280;58975;51.978;8.472;2024-02-26T02:14:02;98824.47;;;2.05;100.00
4858;BME280;58975;51.978;8.472;2024-02-26T02:18:59;98830.34;;;2.08;100.00
4858;BME280;58975;51.978;8.472;2024-02-26T02:23:55;98836.22;;;2.12;100.00
4858;BME280;58975;51.978;8.472;2024-02-26T02:28:52;98828.25;;;2.13;100.00
4858;BME280;58975;51.978;8.472;2024-02-26T02:33:49;98828.16;;;2.15;100.00
4858;BME280;58975;51.978;8.472;2024-02-26T02:38:49;98837.91;;;2.13;100.00
4858;BME280;58975;51.978;8.472;2024-02-26T02:43:46;98830.97;;;2.12;100.00
4858;BME280;58975;51.978;8.472;2024-02-26T02:48:43;98836.88;;;2.15;100.00
4858;BME280;58975;51.978;8.472;2024-02-26T02:53:40;98834.09;;;2.17;100.00
4858;BME280;58975;51.978;8.472;2024-02-26T02:58:36;98836.63;;;2.18;100.00
4858;BME280;58975;51.978;8.472;2024-02-26T03:03:33;98838.53;;;2.16;100.00
4858;BME280;58975;51.978;8.472;2024-02-26T03:08:29;98834.72;;;2.20;100.00
4858;BME280;58975;51.978;8.472;2024-02-26T03:13:25;98840.78;;;2.33;100.00
4858;BME280;58975;51.978;8.472;2024-02-26T03:18:22;98831.53;;;2.41;100.00
4858;BME280;58975;51.978;8.472;2024-02-26T03:23:18;98844.91;;;2.61;100.00
4858;BME280;58975;51.978;8.472;2024-02-26T03:28:15;98835.06;;;2.76;100.00
4858;BME280;58975;51.978;8.472;2024-02-26T03:33:11;98837.44;;;2.79;100.00
4858;BME280;58975;51.978;8.472;2024-02-26T03:38:08;98832.56;;;2.74;100.00
4858;BME280;58975;51.978;8.472;2024-02-26T03:43:04;98838.00;;;2.71;100.00
4858;BME280;58975;51.978;8.472;2024-02-26T03:48:03;98841.72;;;2.69;100.00
4858;BME280;58975;51.978;8.472;2024-02-26T03:53:00;98846.97;;;2.69;100.00
4858;BME280;58975;51.978;8.472;2024-02-26T03:57:56;98853.69;;;2.73;100.00
4858;BME280;58975;51.978;8.472;2024-02-26T04:02:53;98846.31;;;2.78;100.00
4858;BME280;58975;51.978;8.472;2024-02-26T04:07:49;98853.22;;;2.79;100.00
4858;BME280;58975;51.978;8.472;2024-02-26T04:12:45;98847.75;;;2.82;100.00
4858;BME280;58975;51.978;8.472;2024-02-26T04:17:42;98857.81;;;2.88;100.00
4858;BME280;58975;51.978;8.472;2024-02-26T04:22:39;98862.84;;;2.91;100.00
4858;BME280;58975;51.978;8.472;2024-02-26T04:27:35;98867.16;;;2.92;100.00
4858;BME280;58975;51.978;8.472;2024-02-26T04:32:32;98867.50;;;2.88;100.00
4858;BME280;58975;51.978;8.472;2024-02-26T04:37:28;98875.03;;;2.92;100.00
4858;BME280;58975;51.978;8.472;2024-02-26T04:42:28;98888.69;;;2.97;100.00
4858;BME280;58975;51.978;8.472;2024-02-26T04:47:24;98877.34;;;2.97;100.00
4858;BME280;58975;51.978;8.472;2024-02-26T04:52:21;98881.44;;;3.01;100.00
4858;BME280;58975;51.978;8.472;2024-02-26T04:57:18;98880.84;;;3.08;100.00
4858;BME280;58975;51.978;8.472;2024-02-26T05:02:15;98887.56;;;3.12;100.00
4858;BME280;58975;51.978;8.472;2024-02-26T05:07:12;98881.56;;;3.10;100.00
4858;BME280;58975;51.978;8.472;2024-02-26T05:12:09;98873.91;;;3.07;100.00
4858;BME280;58975;51.978;8.472;2024-02-26T05:17:06;98877.75;;;3.14;100.00
4858;BME280;58975;51.978;8.472;2024-02-26T05:22:02;98875.88;;;3.16;100.00
4858;BME280;58975;51.978;8.472;2024-02-26T05:27:00;98892.16;;;3.21;100.00
4858;BME280;58975;51.978;8.472;2024-02-26T05:31:56;98890.59;;;3.30;100.00
4858;BME280;58975;51.978;8.472;2024-02-26T05:36:53;98895.78;;;3.31;100.00
4858;BME280;58975;51.978;8.472;2024-02-26T05:41:49;98901.31;;;3.40;100.00
4858;BME280;58975;51.978;8.472;2024-02-26T05:46:46;98888.00;;;3.41;100.00
4858;BME280;58975;51.978;8.472;2024-02-26T05:51:42;98909.78;;;3.43;100.00
4858;BME280;58975;51.978;8.472;2024-02-26T05:56:38;98924.16;;;3.50;100.00
4858;BME280;58975;51.978;8.472;2024-02-26T06:01:35;98932.56;;;3.55;100.00
4858;BME280;58975;51.978;8.472;2024-02-26T06:06:31;98928.00;;;3.57;100.00
4858;BME280;58975;51.978;8.472;2024-02-26T06:11:28;98913.56;;;3.63;100.00
4858;BME280;58975;51.978;8.472;2024-02-26T06:16:24;98914.75;;;3.59;100.00
4858;BME280;58975;51.978;8.472;2024-02-26T06:21:21;98924.78;;;3.54;100.00
4858;BME280;58975;51.978;8.472;2024-02-26T06:26:17;98923.13;;;3.53;100.00
4858;BME280;58975;51.978;8.472;2024-02-26T06:31:14;98916.88;;;3.54;100.00
4858;BME280;58975;51.978;8.472;2024-02-26T06:36:10;98914.84;;;3.57;100.00
4858;BME280;58975;51.978;8.472;2024-02-26T06:41:06;98903.72;;;3.54;100.00
4858;BME280;58975;51.978;8.472;2024-02-26T06:46:03;98909.97;;;3.64;100.00
4858;BME280;58975;51.978;8.472;2024-02-26T06:50:59;98911.88;;;3.62;100.00
4858;BME280;58975;51.978;8.472;2024-02-26T06:55:56;98913.56;;;3.63;100.00
4858;BME280;58975;51.978;8.472;2024-02-26T07:00:52;98927.00;;;3.71;100.00
4858;BME280;58975;51.978;8.472;2024-02-26T07:05:49;98926.03;;;3.72;100.00
4858;BME280;58975;51.978;8.472;2024-02-26T07:10:46;98922.94;;;3.78;100.00
4858;BME280;58975;51.978;8.472;2024-02-26T07:15:42;98918.41;;;3.80;100.00
4858;BME280;58975;51.978;8.472;2024-02-26T07:20:38;98920.56;;;3.86;100.00
4858;BME280;58975;51.978;8.472;2024-02-26T07:25:35;98921.16;;;3.90;100.00
4858;BME280;58975;51.978;8.472;2024-02-26T07:30:32;98916.84;;;3.89;100.00
4858;BME280;58975;51.978;8.472;2024-02-26T07:35:28;98928.72;;;3.94;100.00
4858;BME280;58975;51.978;8.472;2024-02-26T07:40:25;98932.28;;;3.93;100.00
4858;BME280;58975;51.978;8.472;2024-02-26T07:45:22;98929.41;;;3.96;100.00
4858;BME280;58975;51.978;8.472;2024-02-26T07:50:18;98936.25;;;3.99;100.00
4858;BME280;58975;51.978;8.472;2024-02-26T07:55:16;98940.19;;;4.04;100.00
4858;BME280;58975;51.978;8.472;2024-02-26T08:00:13;98941.28;;;4.13;100.00
4858;BME280;58975;51.978;8.472;2024-02-26T08:05:12;98971.13;;;4.24;100.00
4858;BME280;58975;51.978;8.472;2024-02-26T08:10:09;98977.84;;;4.40;100.00
4858;BME280;58975;51.978;8.472;2024-02-26T08:15:07;98988.03;;;4.55;100.00
4858;BME280;58975;51.978;8.472;2024-02-26T08:20:05;99005.41;;;4.69;100.00
4858;BME280;58975;51.978;8.472;2024-02-26T08:25:01;99008.88;;;4.81;100.00
4858;BME280;58975;51.978;8.472;2024-02-26T08:30:03;99009.38;;;4.86;100.00
4858;BME280;58975;51.978;8.472;2024-02-26T08:34:59;99013.53;;;4.99;100.00
4858;BME280;58975;51.978;8.472;2024-02-26T08:39:56;99010.66;;;5.13;100.00
4858;BME280;58975;51.978;8.472;2024-02-26T08:44:56;99022.66;;;5.17;100.00
4858;BME280;58975;51.978;8.472;2024-02-26T08:49:56;99028.00;;;5.27;100.00
4858;BME280;58975;51.978;8.472;2024-02-26T08:54:52;99024.97;;;5.43;100.00
4858;BME280;58975;51.978;8.472;2024-02-26T08:59:49;99028.75;;;5.61;100.00
4858;BME280;58975;51.978;8.472;2024-02-26T09:04:45;99038.19;;;5.75;100.00
4858;BME280;58975;51.978;8.472;2024-02-26T09:09:42;99042.13;;;5.91;100.00
4858;BME280;58975;51.978;8.472;2024-02-26T09:14:39;99043.13;;;6.00;100.00
4858;BME280;58975;51.978;8.472;2024-02-26T09:19:36;99043.34;;;6.08;100.00
4858;BME280;58975;51.978;8.472;2024-02-26T09:24:34;99045.09;;;6.18;100.00
4858;BME280;58975;51.978;8.472;2024-02-26T09:29:31;99048.13;;;6.14;100.00
4858;BME280;58975;51.978;8.472;2024-02-26T09:34:28;99042.38;;;6.30;100.00
4858;BME280;58975;51.978;8.472;2024-02-26T09:39:24;99040.97;;;6.26;100.00
4858;BME280;58975;51.978;8.472;2024-02-26T09:44:21;99050.06;;;6.33;100.00
4858;BME280;58975;51.978;8.472;2024-02-26T09:49:19;99044.25;;;6.18;100.00
4858;BME280;58975;51.978;8.472;2024-02-26T09:54:17;99049.75;;;6.26;99.72
4858;BME280;58975;51.978;8.472;2024-02-26T09:59:16;99037.13;;;6.60;98.79
4858;BME280;58975;51.978;8.472;2024-02-26T10:04:13;99037.91;;;6.51;97.28
4858;BME280;58975;51.978;8.472;2024-02-26T10:09:11;99042.59;;;6.38;97.15
4858;BME280;58975;51.978;8.472;2024-02-26T10:14:08;99057.91;;;6.44;98.19
4858;BME280;58975;51.978;8.472;2024-02-26T10:19:06;99056.03;;;6.55;95.38
4858;BME280;58975;51.978;8.472;2024-02-26T10:24:03;99065.63;;;6.77;95.75
4858;BME280;58975;51.978;8.472;2024-02-26T10:29:00;99068.00;;;6.80;93.34
4858;BME280;58975;51.978;8.472;2024-02-26T10:33:57;99079.03;;;6.85;92.47
4858;BME280;58975;51.978;8.472;2024-02-26T10:39:01;99081.59;;;6.96;91.90
4858;BME280;58975;51.978;8.472;2024-02-26T10:43:58;99080.03;;;7.24;91.17
4858;BME280;58975;51.978;8.472;2024-02-26T10:48:55;99095.03;;;7.14;90.59
4858;BME280;58975;51.978;8.472;2024-02-26T10:53:57;99088.66;;;7.17;89.20
4858;BME280;58975;51.978;8.472;2024-02-26T10:58:58;99102.59;;;7.19;89.42
4858;BME280;58975;51.978;8.472;2024-02-26T11:03:55;99111.63;;;7.16;89.34
4858;BME280;58975;51.978;8.472;2024-02-26T11:08:52;99108.16;;;7.16;89.30
4858;BME280;58975;51.978;8.472;2024-02-26T11:13:50;99118.84;;;7.04;90.62
4858;BME280;58975;51.978;8.472;2024-02-26T11:18:48;99115.03;;;6.97;90.15
4858;BME280;58975;51.978;8.472;2024-02-26T11:23:48;99120.81;;;6.82;91.37
4858;BME280;58975;51.978;8.472;2024-02-26T11:28:45;99123.94;;;6.96;90.96
4858;BME280;58975;51.978;8.472;2024-02-26T11:33:42;99139.38;;;7.22;91.71
4858;BME280;58975;51.978;8.472;2024-02-26T11:38:39;99139.38;;;7.52;90.35
4858;BME280;58975;51.978;8.472;2024-02-26T11:43:52;99140.63;;;7.57;89.72
4858;BME280;58975;51.978;8.472;2024-02-26T11:48:49;99138.84;;;7.68;90.18
4858;BME280;58975;51.978;8.472;2024-02-26T11:53:46;99137.78;;;7.40;89.84
4858;BME280;58975;51.978;8.472;2024-02-26T11:58:45;99141.91;;;7.23;90.97
4858;BME280;58975;51.978;8.472;2024-02-26T12:03:41;99141.41;;;7.39;90.90
4858;BME280;58975;51.978;8.472;2024-02-26T12:08:38;99146.97;;;7.36;91.20
4858;BME280;58975;51.978;8.472;2024-02-26T12:13:35;99157.00;;;7.32;92.19
4858;BME280;58975;51.978;8.472;2024-02-26T12:18:31;99157.19;;;7.40;92.55
4858;BME280;58975;51.978;8.472;2024-02-26T12:23:28;99150.94;;;7.60;91.36
4858;BME280;58975;51.978;8.472;2024-02-26T12:28:28;99142.81;;;7.43;91.47
4858;BME280;58975;51.978;8.472;2024-02-26T12:33:26;99154.94;;;7.36;91.94
4858;BME280;58975;51.978;8.472;2024-02-26T12:38:23;99164.88;;;7.23;92.26
4858;BME280;58975;51.978;8.472;2024-02-26T12:43:20;99146.91;;;7.17;93.06
4858;BME280;58975;51.978;8.472;2024-02-26T12:48:16;99154.59;;;6.99;93.31
4858;BME280;58975;51.978;8.472;2024-02-26T12:53:13;99161.00;;;6.96;93.37
4858;BME280;58975;51.978;8.472;2024-02-26T12:58:11;99160.72;;;6.99;92.54
4858;BME280;58975;51.978;8.472;2024-02-26T13:03:07;99169.72;;;6.87;90.72
4858;BME280;58975;51.978;8.472;2024-02-26T13:08:05;99178.19;;;6.81;91.71
4858;BME280;58975;51.978;8.472;2024-02-26T13:13:05;99183.75;;;6.78;91.83
4858;BME280;58975;51.978;8.472;2024-02-26T13:18:09;99185.00;;;6.63;90.49
4858;BME280;58975;51.978;8.472;2024-02-26T13:23:08;99193.94;;;6.51;90.39
4858;BME280;58975;51.978;8.472;2024-02-26T13:28:14;99209.31;;;6.57;90.33
4858;BME280;58975;51.978;8.472;2024-02-26T13:33:12;99212.97;;;6.45;90.70
4858;BME280;58975;51.978;8.472;2024-02-26T13:38:10;99204.09;;;6.46;90.73
4858;BME280;58975;51.978;8.472;2024-02-26T13:43:07;99203.50;;;6.42;90.27
4858;BME280;58975;51.978;8.472;2024-02-26T13:48:06;99215.75;;;6.43;91.00
4858;BME280;58975;51.978;8.472;2024-02-26T13:53:04;99223.50;;;6.56;92.09
4858;BME280;58975;51.978;8.472;2024-02-26T13:58:00;99238.16;;;6.60;90.63
4858;BME280;58975;51.978;8.472;2024-02-26T14:02:59;99239.38;;;6.56;91.47
4858;BME280;58975;51.978;8.472;2024-02-26T14:07:55;99248.69;;;6.50;92.47
4858;BME280;58975;51.978;8.472;2024-02-26T14:12:52;99260.31;;;6.48;92.39
4858;BME280;58975;51.978;8.472;2024-02-26T14:17:48;99263.06;;;6.57;93.36
4858;BME280;58975;51.978;8.472;2024-02-26T14:22:51;99278.59;;;6.51;93.79
4858;BME280;58975;51.978;8.472;2024-02-26T14:27:50;99290.25;;;6.48;94.04
4858;BME280;58975;51.978;8.472;2024-02-26T14:32:48;99304.28;;;6.60;94.27
4858;BME280;58975;51.978;8.472;2024-02-26T14:37:45;99316.56;;;6.61;94.19
4858;BME280;58975;51.978;8.472;2024-02-26T14:42:45;99299.72;;;6.62;94.00
4858;BME280;58975;51.978;8.472;2024-02-26T14:47:42;99318.84;;;6.65;94.83
4858;BME280;58975;51.978;8.472;2024-02-26T14:52:38;99304.19;;;6.61;94.62
4858;BME280;58975;51.978;8.472;2024-02-26T14:57:35;99316.63;;;6.71;95.85
4858;BME280;58975;51.978;8.472;2024-02-26T15:02:31;99343.25;;;6.69;96.01
4858;BME280;58975;51.978;8.472;2024-02-26T15:07:27;99352.38;;;6.65;96.89
4858;BME280;58975;51.978;8.472;2024-02-26T15:12:24;99353.13;;;6.56;97.71
4858;BME280;58975;51.978;8.472;2024-02-26T15:17:22;99357.09;;;6.61;99.32
4858;BME280;58975;51.978;8.472;2024-02-26T15:22:19;99354.22;;;6.53;99.75
4858;BME280;58975;51.978;8.472;2024-02-26T15:27:15;99352.06;;;6.58;99.92
4858;BME280;58975;51.978;8.472;2024-02-26T15:32:13;99355.50;;;6.59;98.62
4858;BME280;58975;51.978;8.472;2024-02-26T15:37:10;99349.41;;;6.58;98.82
4858;BME280;58975;51.978;8.472;2024-02-26T15:42:10;99360.94;;;6.57;98.31
4858;BME280;58975;51.978;8.472;2024-02-26T15:47:06;99356.97;;;6.52;98.19
4858;BME280;58975;51.978;8.472;2024-02-26T15:52:03;99367.81;;;6.49;98.88
4858;BME280;58975;51.978;8.472;2024-02-26T15:57:01;99370.69;;;6.57;98.52
4858;BME280;58975;51.978;8.472;2024-02-26T16:01:58;99369.25;;;6.53;99.44
4858;BME280;58975;51.978;8.472;2024-02-26T16:06:59;99366.22;;;6.57;97.77
4858;BME280;58975;51.978;8.472;2024-02-26T16:11:58;99367.09;;;6.58;98.10
4858;BME280;58975;51.978;8.472;2024-02-26T16:17:01;99364.28;;;6.59;95.99
4858;BME280;58975;51.978;8.472;2024-02-26T16:22:00;99367.09;;;6.58;95.70
4858;BME280;58975;51.978;8.472;2024-02-26T16:26:56;99372.81;;;6.63;94.08
4858;BME280;58975;51.978;8.472;2024-02-26T16:31:52;99389.53;;;6.63;94.46
4858;BME280;58975;51.978;8.472;2024-02-26T16:36:49;99380.53;;;6.66;93.29
4858;BME280;58975;51.978;8.472;2024-02-26T16:41:46;99382.06;;;6.69;92.00
4858;BME280;58975;51.978;8.472;2024-02-26T16:46:43;99410.59;;;6.65;92.03
4858;BME280;58975;51.978;8.472;2024-02-26T16:51:39;99402.16;;;6.60;91.77
4858;BME280;58975;51.978;8.472;2024-02-26T16:56:36;99423.84;;;6.54;92.69
4858;BME280;58975;51.978;8.472;2024-02-26T17:01:32;99432.97;;;6.50;93.02
4858;BME280;58975;51.978;8.472;2024-02-26T17:06:29;99424.78;;;6.53;92.72
4858;BME280;58975;51.978;8.472;2024-02-26T17:11:25;99454.13;;;6.50;93.74
4858;BME280;58975;51.978;8.472;2024-02-26T17:16:24;99448.59;;;6.53;94.03
4858;BME280;58975;51.978;8.472;2024-02-26T17:21:20;99456.28;;;6.45;94.93
4858;BME280;58975;51.978;8.472;2024-02-26T17:26:21;99462.19;;;6.37;95.60
4858;BME280;58975;51.978;8.472;2024-02-26T17:31:17;99480.59;;;6.50;94.31
4858;BME280;58975;51.978;8.472;2024-02-26T17:36:14;99484.44;;;6.46;94.34
4858;BME280;58975;51.978;8.472;2024-02-26T17:41:10;99511.13;;;6.43;94.39
4858;BME280;58975;51.978;8.472;2024-02-26T17:46:09;99507.88;;;6.50;93.29
4858;BME280;58975;51.978;8.472;2024-02-26T17:51:05;99528.44;;;6.47;93.08
4858;BME280;58975;51.978;8.472;2024-02-26T17:56:03;99538.16;;;6.46;92.73
4858;BME280;58975;51.978;8.472;2024-02-26T18:01:03;99556.78;;;6.45;92.27
4858;BME280;58975;51.978;8.472;2024-02-26T18:06:00;99581.09;;;6.50;91.31
4858;BME280;58975;51.978;8.472;2024-02-26T18:10:57;99571.94;;;6.43;90.99
4858;BME280;58975;51.978;8.472;2024-02-26T18:15:54;99583.34;;;6.43;91.18
4858;BME280;58975;51.978;8.472;2024-02-26T18:20:53;99598.16;;;6.46;90.86
4858;BME280;58975;51.978;8.472;2024-02-26T18:25:50;99597.66;;;6.41;91.16
4858;BME280;58975;51.978;8.472;2024-02-26T18:30:47;99605.34;;;6.44;91.48
4858;BME280;58975;51.978;8.472;2024-02-26T18:35:43;99629.50;;;6.39;92.83
4858;BME280;58975;51.978;8.472;2024-02-26T18:40:40;99632.38;;;6.36;94.02
4858;BME280;58975;51.978;8.472;2024-02-26T18:45:36;99637.28;;;6.30;95.63
4858;BME280;58975;51.978;8.472;2024-02-26T18:50:34;99657.59;;;6.29;96.58
4858;BME280;58975;51.978;8.472;2024-02-26T18:55:31;99661.81;;;6.32;96.73
4858;BME280;58975;51.978;8.472;2024-02-26T19:00:29;99675.03;;;6.32;96.93
4858;BME280;58975;51.978;8.472;2024-02-26T19:05:25;99687.53;;;6.30;97.57
4858;BME280;58975;51.978;8.472;2024-02-26T19:10:22;99693.25;;;6.24;98.70
4858;BME280;58975;51.978;8.472;2024-02-26T19:15:19;99706.38;;;6.25;98.73
4858;BME280;58975;51.978;8.472;2024-02-26T19:20:17;99715.16;;;6.26;98.87
4858;BME280;58975;51.978;8.472;2024-02-26T19:25:15;99715.59;;;6.19;99.52
4858;BME280;58975;51.978;8.472;2024-02-26T19:30:12;99733.16;;;6.21;99.92
4858;BME280;58975;51.978;8.472;2024-02-26T19:35:08;99738.34;;;6.22;99.96
4858;BME280;58975;51.978;8.472;2024-02-26T19:40:07;99749.78;;;6.10;100.00
4858;BME280;58975;51.978;8.472;2024-02-26T19:45:04;99752.97;;;6.15;100.00
4858;BME280;58975;51.978;8.472;2024-02-26T19:50:01;99763.00;;;6.10;100.00
4858;BME280;58975;51.978;8.472;2024-02-26T19:54:58;99769.16;;;6.10;100.00
4858;BME280;58975;51.978;8.472;2024-02-26T19:59:55;99781.63;;;6.08;100.00
4858;BME280;58975;51.978;8.472;2024-02-26T20:04:52;99790.00;;;6.02;100.00
4858;BME280;58975;51.978;8.472;2024-02-26T20:09:48;99806.56;;;6.04;100.00
4858;BME280;58975;51.978;8.472;2024-02-26T20:14:45;99802.16;;;5.92;100.00
4858;BME280;58975;51.978;8.472;2024-02-26T20:19:42;99816.53;;;5.88;100.00
4858;BME280;58975;51.978;8.472;2024-02-26T20:24:41;99832.53;;;5.87;100.00
4858;BME280;58975;51.978;8.472;2024-02-26T20:29:38;99831.69;;;5.86;100.00
4858;BME280;58975;51.978;8.472;2024-02-26T20:34:35;99841.69;;;5.81;100.00
4858;BME280;58975;51.978;8.472;2024-02-26T20:39:32;99845.06;;;5.70;100.00
4858;BME280;58975;51.978;8.472;2024-02-26T20:44:29;99856.91;;;5.65;100.00
4858;BME280;58975;51.978;8.472;2024-02-26T20:49:26;99854.38;;;5.63;100.00
4858;BME280;58975;51.978;8.472;2024-02-26T20:54:22;99880.34;;;5.57;100.00
4858;BME280;58975;51.978;8.472;2024-02-26T20:59:19;99883.31;;;5.65;100.00
4858;BME280;58975;51.978;8.472;2024-02-26T21:04:15;99891.13;;;5.54;100.00
4858;BME280;58975;51.978;8.472;2024-02-26T21:09:13;99891.56;;;5.48;100.00
4858;BME280;58975;51.978;8.472;2024-02-26T21:14:09;99911.50;;;5.39;100.00
4858;BME280;58975;51.978;8.472;2024-02-26T21:19:06;99912.56;;;5.37;100.00
4858;BME280;58975;51.978;8.472;2024-02-26T21:24:04;99917.09;;;5.35;100.00
4858;BME280;58975;51.978;8.472;2024-02-26T21:29:00;99928.72;;;5.32;100.00
4858;BME280;58975;51.978;8.472;2024-02-26T21:33:56;99937.13;;;5.24;100.00
4858;BME280;58975;51.978;8.472;2024-02-26T21:38:53;99946.00;;;5.23;100.00
4858;BME280;58975;51.978;8.472;2024-02-26T21:43:50;99955.47;;;5.13;100.00
4858;BME280;58975;51.978;8.472;2024-02-26T21:48:48;99955.75;;;5.09;100.00
4858;BME280;58975;51.978;8.472;2024-02-26T21:53:44;99960.28;;;5.07;100.00
4858;BME280;58975;51.978;8.472;2024-02-26T21:58:45;99974.97;;;5.11;100.00
4858;BME280;58975;51.978;8.472;2024-02-26T22:03:41;99983.59;;;5.00;100.00
4858;BME280;58975;51.978;8.472;2024-02-26T22:08:39;99998.00;;;4.95;100.00
4858;BME280;58975;51.978;8.472;2024-02-26T22:13:35;99999.78;;;4.94;100.00
4858;BME280;58975;51.978;8.472;2024-02-26T22:18:31;100013.19;;;4.91;100.00
4858;BME280;58975;51.978;8.472;2024-02-26T22:23:28;100009.63;;;4.92;100.00
4858;BME280;58975;51.978;8.472;2024-02-26T22:28:25;100020.53;;;4.86;100.00
4858;BME280;58975;51.978;8.472;2024-02-26T22:33:21;100041.84;;;4.83;100.00
4858;BME280;58975;51.978;8.472;2024-02-26T22:38:18;100037.72;;;4.79;100.00
4858;BME280;58975;51.978;8.472;2024-02-26T22:43:16;100051.00;;;4.78;100.00
4858;BME280;58975;51.978;8.472;2024-02-26T22:48:12;100046.88;;;4.73;100.00
4858;BME280;58975;51.978;8.472;2024-02-26T22:53:09;100059.41;;;4.70;100.00
4858;BME280;58975;51.978;8.472;2024-02-26T22:58:05;100071.34;;;4.75;100.00
4858;BME280;58975;51.978;8.472;2024-02-26T23:03:02;100074.25;;;4.71;100.00
4858;BME280;58975;51.978;8.472;2024-02-26T23:07:59;100079.66;;;4.69;100.00
4858;BME280;58975;51.978;8.472;2024-02-26T23:12:56;100089.16;;;4.72;100.00
4858;BME280;58975;51.978;8.472;2024-02-26T23:17:53;100085.19;;;4.65;100.00
4858;BME280;58975;51.978;8.472;2024-02-26T23:22:50;100093.13;;;4.65;100.00
4858;BME280;58975;51.978;8.472;2024-02-26T23:27:48;100093.47;;;4.59;100.00
4858;BME280;58975;51.978;8.472;2024-02-26T23:32:45;100105.84;;;4.58;100.00
4858;BME280;58975;51.978;8.472;2024-02-26T23:37:41;100113.38;;;4.64;100.00
4858;BME280;58975;51.978;8.472;2024-02-26T23:42:38;100117.19;;;4.59;100.00
4858;BME280;58975;51.978;8.472;2024-02-26T23:47:34;100124.19;;;4.60;100.00
4858;BME280;58975;51.978;8.472;2024-02-26T23:52:31;100127.41;;;4.65;100.00
4858;BME280;58975;51.978;8.472;2024-02-26T23:57:27;100129.47;;;4.60;100.00
